Suffolk, Virginia
Current Conditions -  °F | °C
As of 8:15 AM on Thursday 30 Oct 2014 (Local Time) from KPVG Reporting Station
Overcast Overcast  
Wind Chill: 52°   Ceiling: 200
Heat Index: 52°   Visibility: 0mi
Dew Point: 48°   Wind: 3mph
Humidity: 88%   Direction: 290°WNW
Pressure: 30.04"   Gusts: NA
Location:  36.73°N, 76.59°W
Report Text: KPVG 301215Z AUTO 29003KT M1/4SM OVC002 11/09 A3004 RMK AO1
Loading
Personal Weather Stations






























Interactive Weather Map
Tropical Storm Tracking
New forecast layout! Learn more

10-Day Weather Forecast

Advertisements
Track Severe Weather on mobile